createdAt,value
2018-04-12T00:00:36.746Z,0.00
2018-04-12T00:01:36.643Z,0.00
2018-04-12T00:02:36.563Z,0.00
2018-04-12T00:03:36.449Z,0.00
2018-04-12T00:04:36.357Z,0.00
2018-04-12T00:05:36.255Z,0.00
2018-04-12T00:06:36.154Z,0.00
2018-04-12T00:07:36.059Z,0.00
2018-04-12T00:08:35.957Z,0.00
2018-04-12T00:09:35.866Z,0.00
2018-04-12T00:10:35.761Z,0.00
2018-04-12T00:11:35.658Z,0.00
2018-04-12T00:12:35.567Z,0.00
2018-04-12T00:13:35.464Z,0.00
2018-04-12T00:14:35.373Z,0.00
2018-04-12T00:15:35.270Z,0.00
2018-04-12T00:16:35.178Z,0.00
2018-04-12T00:17:35.075Z,0.00
2018-04-12T00:18:34.972Z,0.00
2018-04-12T00:19:35.182Z,0.00
2018-04-12T00:20:34.779Z,0.00
2018-04-12T00:21:34.687Z,0.00
2018-04-12T00:22:34.584Z,0.00
2018-04-12T00:23:34.481Z,0.00
2018-04-12T00:24:34.390Z,0.00
2018-04-12T00:25:34.286Z,0.00
2018-04-12T00:26:34.195Z,0.00
2018-04-12T00:27:34.093Z,0.00
2018-04-12T00:28:33.990Z,0.00
2018-04-12T00:29:33.903Z,0.00
2018-04-12T00:30:33.795Z,0.00
2018-04-12T00:31:33.704Z,0.00
2018-04-12T00:32:33.601Z,0.00
2018-04-12T00:33:33.509Z,0.00
2018-04-12T00:34:33.407Z,0.00
2018-04-12T00:35:33.304Z,0.00
2018-04-12T00:36:33.212Z,0.00
2018-04-12T00:37:33.112Z,0.00
2018-04-12T00:38:33.019Z,0.00
2018-04-12T00:39:32.915Z,0.00
2018-04-12T00:40:32.812Z,0.00
2018-04-12T00:41:32.721Z,0.00
2018-04-12T00:42:32.617Z,0.00
2018-04-12T00:43:32.527Z,0.00
2018-04-12T00:44:32.426Z,0.00
2018-04-12T00:45:32.321Z,0.00
2018-04-12T00:46:32.232Z,0.00
2018-04-12T00:47:32.125Z,0.00
2018-04-12T00:48:32.035Z,0.00
2018-04-12T00:49:31.932Z,0.00
2018-04-12T00:50:31.844Z,0.00
2018-04-12T00:51:31.737Z,0.00
2018-04-12T00:52:31.640Z,0.00
2018-04-12T00:53:31.543Z,0.00
2018-04-12T00:54:31.440Z,0.00
2018-04-12T00:55:31.349Z,0.00
2018-04-12T00:56:31.259Z,0.00
2018-04-12T00:57:31.143Z,0.00
2018-04-12T00:58:31.052Z,0.00
2018-04-12T00:59:31.201Z,0.00
2018-04-12T01:00:30.859Z,0.00
2018-04-12T01:01:30.756Z,0.00
2018-04-12T01:02:30.652Z,0.00
2018-04-12T01:03:30.562Z,0.00
2018-04-12T01:04:30.458Z,0.00
2018-04-12T01:05:30.367Z,0.00
2018-04-12T01:06:30.264Z,0.00
2018-04-12T01:07:30.167Z,0.00
2018-04-12T01:08:30.071Z,0.00
2018-04-12T01:09:29.968Z,0.00
2018-04-12T01:10:29.877Z,0.00
2018-04-12T01:11:29.772Z,0.00
2018-04-12T01:12:29.669Z,0.00
2018-04-12T01:13:29.580Z,0.00
2018-04-12T01:14:29.477Z,0.00
2018-04-12T01:15:29.374Z,0.00
2018-04-12T01:16:29.282Z,0.00
2018-04-12T01:17:29.178Z,0.00
2018-04-12T01:18:29.088Z,0.00
2018-04-12T01:19:28.986Z,0.00
2018-04-12T01:20:28.881Z,0.00
2018-04-12T01:21:28.789Z,0.00
2018-04-12T01:22:28.686Z,0.00
2018-04-12T01:23:28.596Z,0.00
2018-04-12T01:24:28.493Z,0.00
2018-04-12T01:25:28.390Z,0.00
2018-04-12T01:26:28.298Z,0.00
2018-04-12T01:27:28.208Z,0.00
2018-04-12T01:28:28.104Z,0.00
2018-04-12T01:29:28.000Z,0.00
2018-04-12T01:30:27.898Z,0.00
2018-04-12T01:31:27.807Z,0.00
2018-04-12T01:32:27.703Z,0.00
2018-04-12T01:33:27.601Z,0.00
2018-04-12T01:34:27.759Z,0.00
2018-04-12T01:35:27.405Z,0.00
2018-04-12T01:36:27.314Z,0.00
2018-04-12T01:37:27.210Z,0.00
2018-04-12T01:38:27.109Z,0.00
2018-04-12T01:39:27.018Z,0.00
2018-04-12T01:40:26.915Z,0.00
2018-04-12T01:41:26.822Z,0.00
2018-04-12T01:42:26.719Z,0.00
2018-04-12T01:43:26.619Z,0.00
2018-04-12T01:44:26.777Z,0.00
2018-04-12T01:45:26.423Z,0.00
2018-04-12T01:46:26.331Z,0.00
2018-04-12T01:47:26.228Z,0.00
2018-04-12T01:48:26.125Z,0.00
2018-04-12T01:49:26.034Z,0.00
2018-04-12T01:50:25.931Z,0.00
2018-04-12T01:51:25.827Z,0.00
2018-04-12T01:52:25.739Z,0.00
2018-04-12T01:53:25.632Z,0.00
2018-04-12T01:54:25.542Z,0.00
2018-04-12T01:55:25.438Z,0.00
2018-04-12T01:56:25.335Z,0.00
2018-04-12T01:57:25.245Z,0.00
2018-04-12T01:58:25.140Z,0.00
2018-04-12T01:59:25.041Z,0.00
2018-04-12T02:00:24.950Z,0.00
2018-04-12T02:01:24.849Z,0.00
2018-04-12T02:02:24.752Z,0.00
2018-04-12T02:03:24.649Z,0.00
2018-04-12T02:04:24.845Z,0.00
2018-04-12T02:05:24.454Z,0.00
2018-04-12T02:06:24.353Z,0.00
2018-04-12T02:07:24.250Z,0.00
2018-04-12T02:08:24.157Z,0.00
2018-04-12T02:09:24.054Z,0.00
2018-04-12T02:10:23.964Z,0.00
2018-04-12T02:11:23.860Z,0.00
2018-04-12T02:12:23.758Z,0.00
2018-04-12T02:13:23.667Z,0.00
2018-04-12T02:14:23.563Z,0.00
2018-04-12T02:15:23.460Z,0.00
2018-04-12T02:16:23.373Z,0.00
2018-04-12T02:17:23.267Z,0.00
2018-04-12T02:18:23.175Z,0.00
2018-04-12T02:19:23.071Z,0.00
2018-04-12T02:20:22.969Z,0.00
2018-04-12T02:21:22.879Z,0.00
2018-04-12T02:22:22.779Z,0.00
2018-04-12T02:23:22.672Z,0.00
2018-04-12T02:24:22.583Z,0.00
2018-04-12T02:25:22.477Z,0.00
2018-04-12T02:26:22.375Z,0.00
2018-04-12T02:27:22.284Z,0.00
2018-04-12T02:28:22.180Z,0.00
2018-04-12T02:29:22.089Z,0.00
2018-04-12T02:30:21.985Z,0.00
2018-04-12T02:31:21.882Z,0.00
2018-04-12T02:32:21.793Z,0.00
2018-04-12T02:33:21.693Z,0.00
2018-04-12T02:34:21.584Z,0.00
2018-04-12T02:35:21.493Z,0.00
2018-04-12T02:36:21.390Z,0.00
2018-04-12T02:37:21.288Z,0.00
2018-04-12T02:38:21.197Z,0.00
2018-04-12T02:39:21.097Z,0.00
2018-04-12T02:40:21.001Z,0.00
2018-04-12T02:41:20.894Z,0.00
2018-04-12T02:42:20.795Z,0.00
2018-04-12T02:43:20.705Z,0.00
2018-04-12T02:44:20.603Z,0.00
2018-04-12T02:45:20.499Z,0.00
2018-04-12T02:46:20.420Z,0.00
2018-04-12T02:47:20.304Z,0.00
2018-04-12T02:48:20.202Z,0.00
2018-04-12T02:49:20.111Z,0.00
2018-04-12T02:50:20.009Z,0.00
2018-04-12T02:51:19.909Z,0.00
2018-04-12T02:52:19.812Z,0.00
2018-04-12T02:53:19.709Z,0.00
2018-04-12T02:54:19.620Z,0.00
2018-04-12T02:55:19.516Z,0.00
2018-04-12T02:56:19.413Z,0.00
2018-04-12T02:57:19.321Z,0.00
2018-04-12T02:58:19.219Z,0.00
2018-04-12T02:59:19.115Z,0.00
2018-04-12T03:00:19.025Z,0.00
2018-04-12T03:01:18.921Z,0.00
2018-04-12T03:02:18.818Z,0.00
2018-04-12T03:03:18.729Z,0.00
2018-04-12T03:04:18.886Z,0.00
2018-04-12T03:05:18.519Z,0.00
2018-04-12T03:06:18.430Z,0.00
2018-04-12T03:07:18.326Z,0.00
2018-04-12T03:08:18.223Z,0.00
2018-04-12T03:09:18.136Z,0.00
2018-04-12T03:10:18.028Z,0.00
2018-04-12T03:11:17.924Z,0.00
2018-04-12T03:12:17.834Z,0.00
2018-04-12T03:13:17.730Z,0.00
2018-04-12T03:14:17.629Z,0.00
2018-04-12T03:15:17.536Z,0.00
2018-04-12T03:16:17.433Z,0.00
2018-04-12T03:17:17.331Z,0.00
2018-04-12T03:18:17.240Z,0.00
2018-04-12T03:19:17.136Z,0.00
2018-04-12T03:20:17.033Z,0.00
2018-04-12T03:21:16.942Z,0.00
2018-04-12T03:22:16.837Z,0.00
2018-04-12T03:23:16.735Z,0.00
2018-04-12T03:24:16.644Z,0.00
2018-04-12T03:25:16.541Z,0.00
2018-04-12T03:26:16.450Z,0.00
2018-04-12T03:27:16.346Z,0.00
2018-04-12T03:28:16.244Z,0.00
2018-04-12T03:29:16.140Z,0.00
2018-04-12T03:30:16.050Z,0.00
2018-04-12T03:31:15.942Z,0.00
2018-04-12T03:32:15.845Z,0.00
2018-04-12T03:33:15.751Z,0.00
2018-04-12T03:34:15.910Z,0.00
2018-04-12T03:35:15.545Z,0.00
2018-04-12T03:36:15.454Z,0.00
2018-04-12T03:37:15.379Z,0.00
2018-04-12T03:38:15.262Z,0.00
2018-04-12T03:39:15.155Z,0.00
2018-04-12T03:40:15.052Z,0.00
2018-04-12T03:41:14.951Z,0.00
2018-04-12T03:42:14.896Z,0.00
2018-04-12T03:43:14.755Z,0.00
2018-04-12T03:44:14.652Z,0.00
2018-04-12T03:45:14.561Z,4.00
2018-04-12T03:46:14.459Z,4.00
2018-04-12T03:47:14.356Z,0.00
2018-04-12T03:48:14.264Z,4.00
2018-04-12T03:49:14.161Z,4.00
2018-04-12T03:50:14.060Z,8.00
2018-04-12T03:51:13.965Z,4.00
2018-04-12T03:52:13.862Z,8.00
2018-04-12T03:53:13.760Z,8.00
2018-04-12T03:54:13.670Z,8.00
2018-04-12T03:55:13.566Z,12.00
2018-04-12T03:56:13.463Z,12.00
2018-04-12T03:57:13.374Z,16.00
2018-04-12T03:58:13.268Z,20.00
2018-04-12T03:59:13.167Z,20.00
2018-04-12T04:00:13.077Z,28.00
2018-04-12T04:01:12.971Z,28.00
2018-04-12T04:02:12.868Z,36.00
2018-04-12T04:03:12.776Z,40.00
2018-04-12T04:04:12.672Z,44.00
2018-04-12T04:05:12.569Z,52.00
2018-04-12T04:06:12.478Z,56.00
2018-04-12T04:07:12.380Z,64.00
2018-04-12T04:08:12.289Z,72.00
2018-04-12T04:09:12.180Z,80.00
2018-04-12T04:10:12.078Z,92.00
2018-04-12T04:11:11.974Z,100.00
2018-04-12T04:12:11.888Z,116.00
2018-04-12T04:13:11.780Z,124.00
2018-04-12T04:14:11.678Z,136.00
2018-04-12T04:15:11.586Z,148.00
2018-04-12T04:16:11.482Z,168.00
2018-04-12T04:17:11.379Z,180.00
2018-04-12T04:18:11.292Z,196.00
2018-04-12T04:19:11.190Z,212.00
2018-04-12T04:20:11.085Z,228.00
2018-04-12T04:21:10.980Z,248.00
2018-04-12T04:22:10.887Z,268.00
2018-04-12T04:23:10.787Z,288.00
2018-04-12T04:24:10.682Z,312.00
2018-04-12T04:25:10.591Z,336.00
2018-04-12T04:26:10.488Z,356.00
2018-04-12T04:27:10.385Z,384.00
2018-04-12T04:28:10.293Z,412.00
2018-04-12T04:29:10.190Z,440.00
2018-04-12T04:30:10.087Z,468.00
2018-04-12T04:31:09.996Z,500.00
2018-04-12T04:32:09.893Z,536.00
2018-04-12T04:33:09.796Z,572.00
2018-04-12T04:34:09.702Z,608.00
2018-04-12T04:35:09.595Z,648.00
2018-04-12T04:36:09.492Z,692.00
2018-04-12T04:37:09.405Z,732.00
2018-04-12T04:38:09.299Z,772.00
2018-04-12T04:39:09.196Z,824.00
2018-04-12T04:40:09.104Z,872.00
2018-04-12T04:41:09.014Z,920.00
2018-04-12T04:42:08.897Z,972.00
2018-04-12T04:43:08.796Z,1020.00
2018-04-12T04:44:09.007Z,1068.00
2018-04-12T04:45:08.626Z,1124.00
2018-04-12T04:46:08.509Z,1172.00
2018-04-12T04:47:08.405Z,1216.00
2018-04-12T04:48:08.302Z,1264.00
2018-04-12T04:49:08.200Z,1304.00
2018-04-12T04:50:08.109Z,1356.00
2018-04-12T04:51:08.009Z,1404.00
2018-04-12T04:52:07.902Z,1440.00
2018-04-12T04:53:07.811Z,1484.00
2018-04-12T04:54:07.707Z,1532.00
2018-04-12T04:55:07.605Z,1588.00
2018-04-12T04:56:07.513Z,1628.00
2018-04-12T04:57:07.411Z,1672.00
2018-04-12T04:58:07.319Z,1684.00
2018-04-12T04:59:07.218Z,1700.00
2018-04-12T05:00:07.112Z,1720.00
2018-04-12T05:01:07.023Z,1780.00
2018-04-12T05:02:06.919Z,1800.00
2018-04-12T05:03:06.816Z,1860.00
2018-04-12T05:04:06.724Z,1884.00
2018-04-12T05:05:06.621Z,2004.00
2018-04-12T05:06:06.518Z,2100.00
2018-04-12T05:07:06.427Z,2216.00
2018-04-12T05:08:06.324Z,2324.00
2018-04-12T05:09:06.232Z,2376.00
2018-04-12T05:10:06.129Z,2496.00
2018-04-12T05:11:06.026Z,2576.00
2018-04-12T05:12:05.935Z,2592.00
2018-04-12T05:13:05.832Z,2684.00
2018-04-12T05:14:06.029Z,2772.00
2018-04-12T05:15:05.641Z,2828.00
2018-04-12T05:16:05.533Z,2892.00
2018-04-12T05:17:05.446Z,2940.00
2018-04-12T05:18:05.341Z,3036.00
2018-04-12T05:19:05.240Z,3104.00
2018-04-12T05:20:05.147Z,3192.00
2018-04-12T05:21:05.064Z,3252.00
2018-04-12T05:22:04.952Z,3336.00
2018-04-12T05:23:04.848Z,3416.00
2018-04-12T05:24:05.007Z,3472.00
2018-04-12T05:25:04.656Z,3472.00
2018-04-12T05:26:04.551Z,3596.00
2018-04-12T05:27:04.461Z,3692.00
2018-04-12T05:28:04.357Z,3772.00
2018-04-12T05:29:04.265Z,3800.00
2018-04-12T05:30:04.162Z,3816.00
2018-04-12T05:31:04.072Z,3948.00
2018-04-12T05:32:03.968Z,4024.00
2018-04-12T05:33:03.885Z,3992.00
2018-04-12T05:34:03.775Z,4020.00
2018-04-12T05:35:03.675Z,4076.00
2018-04-12T05:36:03.581Z,4160.00
2018-04-12T05:37:03.478Z,4132.00
2018-04-12T05:38:03.399Z,4152.00
2018-04-12T05:39:03.283Z,4328.00
2018-04-12T05:40:03.193Z,4284.00
2018-04-12T05:41:03.096Z,4168.00
2018-04-12T05:42:02.999Z,4328.00
2018-04-12T05:43:02.894Z,4472.00
2018-04-12T05:44:03.054Z,4444.00
2018-04-12T05:45:02.706Z,4564.00
2018-04-12T05:46:02.610Z,4668.00
2018-04-12T05:47:02.506Z,4812.00
2018-04-12T05:48:02.415Z,4876.00
2018-04-12T05:49:02.313Z,4984.00
2018-04-12T05:50:02.221Z,4940.00
2018-04-12T05:51:02.117Z,4984.00
2018-04-12T05:52:02.028Z,5180.00
2018-04-12T05:53:01.924Z,5232.00
2018-04-12T05:54:01.832Z,5360.00
2018-04-12T05:55:01.730Z,5276.00
2018-04-12T05:56:01.639Z,5424.00
2018-04-12T05:57:01.547Z,5380.00
2018-04-12T05:58:01.443Z,5340.00
2018-04-12T05:59:01.354Z,5448.00
2018-04-12T06:00:01.251Z,5092.00
2018-04-12T06:01:01.171Z,5032.00
2018-04-12T06:02:01.056Z,5256.00
2018-04-12T06:03:00.966Z,5424.00
2018-04-12T06:04:00.873Z,5416.00
2018-04-12T06:05:00.772Z,5332.00
2018-04-12T06:06:00.680Z,5308.00
2018-04-12T06:07:00.578Z,5460.00
2018-04-12T06:08:00.486Z,5108.00
2018-04-12T06:09:00.383Z,5692.00
2018-04-12T06:10:00.292Z,6464.00
2018-04-12T06:11:00.192Z,6708.00
2018-04-12T06:12:00.097Z,6788.00
2018-04-12T06:12:59.996Z,6920.00
2018-04-12T06:13:59.910Z,7048.00
2018-04-12T06:14:59.813Z,7260.00
2018-04-12T06:15:59.710Z,7184.00
2018-04-12T06:16:59.620Z,7116.00
2018-04-12T06:17:59.528Z,7108.00
2018-04-12T06:18:59.425Z,7104.00
2018-04-12T06:19:59.336Z,6832.00
2018-04-12T06:20:59.232Z,6872.00
2018-04-12T06:21:59.140Z,6776.00
2018-04-12T06:22:59.050Z,6496.00
2018-04-12T06:23:58.946Z,6548.00
2018-04-12T06:24:58.856Z,6508.00
2018-04-12T06:25:58.753Z,6540.00
2018-04-12T06:26:58.663Z,6784.00
2018-04-12T06:27:58.570Z,6880.00
2018-04-12T06:28:58.469Z,7128.00
2018-04-12T06:29:58.377Z,7240.00
2018-04-12T06:30:58.285Z,7080.00
2018-04-12T06:31:58.187Z,7212.00
2018-04-12T06:32:58.092Z,7288.00
2018-04-12T06:33:57.992Z,7392.00
2018-04-12T06:34:57.897Z,7360.00
2018-04-12T06:35:57.809Z,7244.00
2018-04-12T06:36:57.704Z,6816.00
2018-04-12T06:37:57.611Z,6768.00
2018-04-12T06:38:57.522Z,6684.00
2018-04-12T06:39:57.418Z,6672.00
2018-04-12T06:40:57.327Z,6816.00
2018-04-12T06:41:57.238Z,7072.00
2018-04-12T06:42:57.133Z,7268.00
2018-04-12T06:43:57.041Z,7376.00
2018-04-12T06:44:56.953Z,7516.00
2018-04-12T06:45:56.848Z,7668.00
2018-04-12T06:46:56.756Z,7464.00
2018-04-12T06:47:56.653Z,7360.00
2018-04-12T06:48:56.567Z,6716.00
2018-04-12T06:49:56.473Z,6892.00
2018-04-12T06:50:56.384Z,6908.00
2018-04-12T06:51:56.277Z,7116.00
2018-04-12T06:52:56.187Z,7272.00
2018-04-12T06:53:56.082Z,7392.00
2018-04-12T06:54:55.992Z,7376.00
2018-04-12T06:55:55.900Z,7072.00
2018-04-12T06:56:55.796Z,7288.00
2018-04-12T06:57:55.711Z,7244.00
2018-04-12T06:58:55.854Z,7380.00
2018-04-12T06:59:55.512Z,7508.00
2018-04-12T07:00:55.422Z,7624.00
2018-04-12T07:01:55.318Z,7808.00
2018-04-12T07:02:55.226Z,8008.00
2018-04-12T07:03:55.125Z,8076.00
2018-04-12T07:04:55.033Z,8172.00
2018-04-12T07:05:54.972Z,8172.00
2018-04-12T07:06:54.839Z,8220.00
2018-04-12T07:07:54.747Z,8340.00
2018-04-12T07:08:54.659Z,8540.00
2018-04-12T07:09:54.553Z,8988.00
2018-04-12T07:10:54.463Z,9420.00
2018-04-12T07:11:54.361Z,9864.00
2018-04-12T07:12:54.271Z,10200.00
2018-04-12T07:13:54.178Z,10636.00
2018-04-12T07:14:54.075Z,11016.00
2018-04-12T07:15:53.983Z,11136.00
2018-04-12T07:16:53.879Z,11196.00
2018-04-12T07:17:53.789Z,11260.00
2018-04-12T07:18:53.686Z,11268.00
2018-04-12T07:19:53.595Z,11308.00
2018-04-12T07:20:53.505Z,11300.00
2018-04-12T07:21:53.401Z,11280.00
2018-04-12T07:22:53.309Z,11208.00
2018-04-12T07:23:53.207Z,11140.00
2018-04-12T07:24:53.116Z,11096.00
2018-04-12T07:25:53.024Z,11092.00
2018-04-12T07:26:52.921Z,11128.00
2018-04-12T07:27:52.831Z,11216.00
2018-04-12T07:28:52.727Z,11364.00
2018-04-12T07:29:52.636Z,11576.00
2018-04-12T07:30:52.547Z,11828.00
2018-04-12T07:31:52.443Z,12108.00
2018-04-12T07:32:52.351Z,12396.00
2018-04-12T07:33:52.249Z,12736.00
2018-04-12T07:34:52.157Z,13064.00
2018-04-12T07:35:52.065Z,13400.00
2018-04-12T07:36:51.964Z,13756.00
2018-04-12T07:37:51.873Z,14180.00
2018-04-12T07:38:51.772Z,14504.00
2018-04-12T07:39:51.678Z,14784.00
2018-04-12T07:40:51.588Z,15052.00
2018-04-12T07:41:51.487Z,15256.00
2018-04-12T07:42:51.393Z,15368.00
2018-04-12T07:43:51.347Z,15380.00
2018-04-12T07:44:51.201Z,15312.00
2018-04-12T07:45:51.107Z,15140.00
2018-04-12T07:46:51.007Z,14952.00
2018-04-12T07:47:50.917Z,14772.00
2018-04-12T07:48:50.823Z,14832.00
2018-04-12T07:49:50.720Z,14932.00
2018-04-12T07:50:50.629Z,14912.00
2018-04-12T07:51:50.539Z,14992.00
2018-04-12T07:52:50.435Z,15160.00
2018-04-12T07:53:50.345Z,15212.00
2018-04-12T07:54:50.255Z,15080.00
2018-04-12T07:55:50.151Z,14708.00
2018-04-12T07:56:50.060Z,14772.00
2018-04-12T07:57:49.969Z,15052.00
2018-04-12T07:58:49.865Z,15340.00
2018-04-12T07:59:49.775Z,14856.00
2018-04-12T08:00:49.683Z,14964.00
2018-04-12T08:01:49.587Z,14976.00
2018-04-12T08:02:49.493Z,14824.00
2018-04-12T08:03:49.399Z,14576.00
2018-04-12T08:04:49.296Z,14692.00
2018-04-12T08:05:49.205Z,14360.00
2018-04-12T08:06:49.127Z,14412.00
2018-04-12T08:07:49.012Z,14708.00
2018-04-12T08:08:48.920Z,14936.00
2018-04-12T08:09:48.830Z,14996.00
2018-04-12T08:10:48.738Z,15200.00
2018-04-12T08:11:48.635Z,15460.00
2018-04-12T08:12:48.544Z,15768.00
2018-04-12T08:13:48.453Z,16004.00
2018-04-12T08:14:48.353Z,15796.00
2018-04-12T08:15:48.259Z,15820.00
2018-04-12T08:16:48.169Z,15784.00
2018-04-12T08:17:48.077Z,15356.00
2018-04-12T08:18:47.973Z,14704.00
2018-04-12T08:19:47.884Z,14212.00
2018-04-12T08:20:47.798Z,13788.00
2018-04-12T08:21:47.691Z,13596.00
2018-04-12T08:22:47.599Z,13316.00
2018-04-12T08:23:47.507Z,13176.00
2018-04-12T08:24:47.418Z,13328.00
2018-04-12T08:25:47.318Z,13552.00
2018-04-12T08:26:47.227Z,13576.00
2018-04-12T08:27:47.136Z,13784.00
2018-04-12T08:28:47.071Z,13944.00
2018-04-12T08:29:46.938Z,14072.00
2018-04-12T08:30:46.848Z,14312.00
2018-04-12T08:31:46.756Z,14412.00
2018-04-12T08:32:46.654Z,14720.00
2018-04-12T08:33:46.563Z,15036.00
2018-04-12T08:34:46.471Z,15516.00
2018-04-12T08:35:46.385Z,15796.00
2018-04-12T08:36:46.290Z,16124.00
2018-04-12T08:37:46.188Z,16456.00
2018-04-12T08:38:46.097Z,16592.00
2018-04-12T08:39:46.004Z,16756.00
2018-04-12T08:40:45.907Z,17152.00
2018-04-12T08:41:45.811Z,17312.00
2018-04-12T08:42:45.720Z,17312.00
2018-04-12T08:43:45.634Z,17344.00
2018-04-12T08:44:45.539Z,17344.00
2018-04-12T08:45:45.435Z,17536.00
2018-04-12T08:46:45.346Z,17760.00
2018-04-12T08:47:45.253Z,17536.00
2018-04-12T08:48:45.163Z,17344.00
2018-04-12T08:49:45.072Z,16992.00
2018-04-12T08:50:44.969Z,16428.00
2018-04-12T08:51:44.879Z,16496.00
2018-04-12T08:52:44.787Z,16132.00
2018-04-12T08:53:44.697Z,15644.00
2018-04-12T08:54:44.598Z,15196.00
2018-04-12T08:55:44.516Z,14752.00
2018-04-12T08:56:44.413Z,14316.00
2018-04-12T08:57:44.321Z,14016.00
2018-04-12T08:58:44.231Z,13896.00
2018-04-12T08:59:44.128Z,13924.00
2018-04-12T09:00:44.036Z,14212.00
2018-04-12T09:01:43.947Z,14796.00
2018-04-12T09:02:43.855Z,15408.00
2018-04-12T09:03:43.765Z,15948.00
2018-04-12T09:04:43.672Z,16768.00
2018-04-12T09:05:43.570Z,17504.00
2018-04-12T09:06:43.480Z,18176.00
2018-04-12T09:07:43.387Z,18880.00
2018-04-12T09:08:43.297Z,19424.00
2018-04-12T09:09:43.206Z,19968.00
2018-04-12T09:10:43.105Z,20096.00
2018-04-12T09:11:43.013Z,20096.00
2018-04-12T09:12:42.921Z,19968.00
2018-04-12T09:13:42.830Z,19712.00
2018-04-12T09:14:42.739Z,19296.00
2018-04-12T09:15:42.650Z,18944.00
2018-04-12T09:16:42.547Z,18944.00
2018-04-12T09:17:42.455Z,19776.00
2018-04-12T09:18:42.365Z,20096.00
2018-04-12T09:19:42.272Z,19744.00
2018-04-12T09:20:42.183Z,19296.00
2018-04-12T09:21:42.095Z,19328.00
2018-04-12T09:22:42.001Z,19840.00
2018-04-12T09:23:41.898Z,20512.00
2018-04-12T09:24:41.807Z,21632.00
2018-04-12T09:25:41.717Z,23424.00
2018-04-12T09:26:41.625Z,24992.00
2018-04-12T09:27:41.617Z,25824.00
2018-04-12T09:28:41.447Z,25760.00
2018-04-12T09:29:41.353Z,24704.00
2018-04-12T09:30:41.262Z,23392.00
2018-04-12T09:31:41.171Z,21664.00
2018-04-12T09:32:41.080Z,20000.00
2018-04-12T09:33:40.991Z,18080.00
2018-04-12T09:34:40.887Z,17984.00
2018-04-12T09:35:40.796Z,17440.00
2018-04-12T09:36:40.706Z,16644.00
2018-04-12T09:37:40.615Z,16456.00
2018-04-12T09:38:40.775Z,15800.00
2018-04-12T09:39:40.436Z,17184.00
2018-04-12T09:40:40.343Z,17920.00
2018-04-12T09:41:40.251Z,20064.00
2018-04-12T09:42:40.161Z,20608.00
2018-04-12T09:43:40.069Z,22496.00
2018-04-12T09:44:39.979Z,18368.00
2018-04-12T09:45:39.888Z,20928.00
2018-04-12T09:46:39.798Z,29536.00
2018-04-12T09:47:39.710Z,31104.00
2018-04-12T09:48:39.615Z,27424.00
2018-04-12T09:49:39.542Z,24192.00
2018-04-12T09:50:39.424Z,22944.00
2018-04-12T09:51:39.331Z,22688.00
2018-04-12T09:52:39.244Z,20288.00
2018-04-12T09:53:39.151Z,20288.00
2018-04-12T09:54:39.058Z,20384.00
2018-04-12T09:55:38.971Z,20480.00
2018-04-12T09:56:38.876Z,20960.00
2018-04-12T09:57:38.786Z,22080.00
2018-04-12T09:58:38.694Z,22656.00
2018-04-12T09:59:38.604Z,22880.00
2018-04-12T10:00:38.513Z,23104.00
2018-04-12T10:01:38.423Z,23200.00
2018-04-12T10:02:38.331Z,23360.00
2018-04-12T10:03:38.241Z,24032.00
2018-04-12T10:04:38.152Z,26688.00
2018-04-12T10:05:38.062Z,26720.00
2018-04-12T10:06:37.968Z,23680.00
2018-04-12T10:07:37.878Z,20864.00
2018-04-12T10:08:37.787Z,20448.00
2018-04-12T10:09:37.696Z,20256.00
2018-04-12T10:10:37.605Z,18976.00
2018-04-12T10:11:37.514Z,18272.00
2018-04-12T10:12:37.423Z,17728.00
2018-04-12T10:13:37.334Z,17696.00
2018-04-12T10:14:37.242Z,18656.00
2018-04-12T10:15:37.151Z,20256.00
2018-04-12T10:16:37.074Z,21728.00
2018-04-12T10:17:36.983Z,22176.00
2018-04-12T10:18:37.141Z,22176.00
2018-04-12T10:19:36.791Z,22080.00
2018-04-12T10:20:36.697Z,21856.00
2018-04-12T10:21:36.669Z,21472.00
2018-04-12T10:22:36.528Z,21376.00
2018-04-12T10:23:36.437Z,20896.00
2018-04-12T10:24:36.346Z,19648.00
2018-04-12T10:25:36.299Z,18752.00
2018-04-12T10:26:36.165Z,18432.00
2018-04-12T10:27:36.073Z,18176.00
2018-04-12T10:28:35.982Z,18272.00
2018-04-12T10:29:35.891Z,18432.00
2018-04-12T10:30:35.801Z,18848.00
2018-04-12T10:31:35.723Z,19104.00
2018-04-12T10:32:35.620Z,19200.00
2018-04-12T10:33:35.531Z,19200.00
2018-04-12T10:34:35.439Z,19104.00
2018-04-12T10:35:35.346Z,19008.00
2018-04-12T10:36:35.256Z,19040.00
2018-04-12T10:37:35.165Z,19200.00
2018-04-12T10:38:35.075Z,19232.00
2018-04-12T10:39:34.999Z,19680.00
2018-04-12T10:40:34.899Z,20128.00
2018-04-12T10:41:34.832Z,20384.00
2018-04-12T10:42:34.712Z,20576.00
2018-04-12T10:43:34.620Z,20640.00
2018-04-12T10:44:34.530Z,20384.00
2018-04-12T10:45:34.438Z,19968.00
2018-04-12T10:46:34.348Z,19520.00
2018-04-12T10:47:34.258Z,19040.00
2018-04-12T10:48:34.167Z,18560.00
2018-04-12T10:49:34.076Z,18112.00
2018-04-12T10:50:33.985Z,17984.00
2018-04-12T10:51:33.896Z,19232.00
2018-04-12T10:52:33.806Z,20928.00
2018-04-12T10:53:33.713Z,22656.00
2018-04-12T10:54:33.624Z,24096.00
2018-04-12T10:55:33.531Z,24800.00
2018-04-12T10:56:33.453Z,25600.00
2018-04-12T10:57:33.362Z,25440.00
2018-04-12T10:58:33.269Z,24704.00
2018-04-12T10:59:33.179Z,23232.00
2018-04-12T11:00:33.088Z,22400.00
2018-04-12T11:01:33.001Z,23072.00
2018-04-12T11:02:32.906Z,23648.00
2018-04-12T11:03:32.816Z,23680.00
2018-04-12T11:04:32.724Z,23552.00
2018-04-12T11:05:32.634Z,23072.00
2018-04-12T11:06:32.543Z,21920.00
2018-04-12T11:07:32.453Z,20352.00
2018-04-12T11:08:32.375Z,18368.00
2018-04-12T11:09:32.286Z,15688.00
2018-04-12T11:10:32.196Z,14348.00
2018-04-12T11:11:32.101Z,14232.00
2018-04-12T11:12:32.011Z,14920.00
2018-04-12T11:13:31.919Z,14076.00
2018-04-12T11:14:31.831Z,12560.00
2018-04-12T11:15:31.739Z,13592.00
2018-04-12T11:16:31.659Z,15100.00
2018-04-12T11:17:31.570Z,15312.00
2018-04-12T11:18:31.551Z,14672.00
2018-04-12T11:19:31.388Z,13960.00
2018-04-12T11:20:31.296Z,13156.00
2018-04-12T11:21:31.209Z,12172.00
2018-04-12T11:22:31.114Z,11948.00
2018-04-12T11:23:31.056Z,11432.00
2018-04-12T11:24:30.962Z,11536.00
2018-04-12T11:25:30.859Z,11696.00
2018-04-12T11:26:30.753Z,10868.00
2018-04-12T11:27:30.673Z,10596.00
2018-04-12T11:28:30.582Z,10496.00
2018-04-12T11:29:30.492Z,10320.00
2018-04-12T11:30:30.401Z,10208.00
2018-04-12T11:31:30.309Z,10076.00
2018-04-12T11:32:30.224Z,10024.00
2018-04-12T11:33:30.127Z,9952.00
2018-04-12T11:34:30.045Z,9984.00
2018-04-12T11:35:29.947Z,9968.00
2018-04-12T11:36:29.856Z,9744.00
2018-04-12T11:37:29.765Z,9632.00
2018-04-12T11:38:29.686Z,9600.00
2018-04-12T11:39:29.598Z,9512.00
2018-04-12T11:40:29.530Z,9480.00
2018-04-12T11:41:29.413Z,9452.00
2018-04-12T11:42:29.322Z,9320.00
2018-04-12T11:43:29.231Z,9252.00
2018-04-12T11:44:29.140Z,9128.00
2018-04-12T11:45:29.057Z,9088.00
2018-04-12T11:46:28.959Z,9136.00
2018-04-12T11:47:28.868Z,9072.00
2018-04-12T11:48:28.777Z,9028.00
2018-04-12T11:49:28.688Z,8964.00
2018-04-12T11:50:28.598Z,8856.00
2018-04-12T11:51:28.506Z,8912.00
2018-04-12T11:52:28.416Z,8892.00
2018-04-12T11:53:28.325Z,8752.00
2018-04-12T11:54:28.234Z,8708.00
2018-04-12T11:55:28.157Z,8776.00
2018-04-12T11:56:28.085Z,8884.00
2018-04-12T11:57:27.975Z,8724.00
2018-04-12T11:58:27.884Z,8608.00
2018-04-12T11:59:27.792Z,8504.00
2018-04-12T12:00:27.702Z,8408.00
2018-04-12T12:01:27.610Z,8308.00
2018-04-12T12:02:27.520Z,8236.00
2018-04-12T12:03:27.428Z,8140.00
2018-04-12T12:04:27.339Z,8108.00
2018-04-12T12:05:27.249Z,8052.00
2018-04-12T12:06:27.157Z,8032.00
2018-04-12T12:07:27.065Z,7992.00
2018-04-12T12:08:26.974Z,7940.00
2018-04-12T12:09:26.883Z,7916.00
2018-04-12T12:10:26.795Z,7988.00
2018-04-12T12:11:26.715Z,7920.00
2018-04-12T12:12:26.654Z,7888.00
2018-04-12T12:13:26.520Z,7908.00
2018-04-12T12:14:26.431Z,8172.00
2018-04-12T12:15:26.340Z,8244.00
2018-04-12T12:16:26.259Z,8364.00
2018-04-12T12:17:26.170Z,8592.00
2018-04-12T12:18:26.077Z,9008.00
2018-04-12T12:19:25.988Z,8712.00
2018-04-12T12:20:25.898Z,9900.00